createdAt,value
2023-02-22T00:00:59.785Z,2.28
2023-02-22T00:03:32.334Z,2.24
2023-02-22T00:06:05.221Z,2.26
2023-02-22T00:08:37.315Z,2.46
2023-02-22T00:11:11.331Z,2.57
2023-02-22T00:13:39.009Z,2.43
2023-02-22T00:16:07.049Z,2.27
2023-02-22T00:18:34.143Z,2.30
2023-02-22T00:21:01.812Z,2.23
2023-02-22T00:23:31.023Z,2.36
2023-02-22T00:26:00.069Z,2.46
2023-02-22T00:28:27.637Z,2.43
2023-02-22T00:30:55.264Z,2.45
2023-02-22T00:33:23.226Z,2.52
2023-02-22T00:35:50.941Z,2.69
2023-02-22T00:38:19.690Z,2.71
2023-02-22T00:40:47.130Z,2.42
2023-02-22T00:43:14.903Z,2.62
2023-02-22T00:45:43.204Z,2.56
2023-02-22T00:48:10.878Z,2.60
2023-02-22T00:50:38.308Z,2.43
2023-02-22T00:53:07.502Z,2.51
2023-02-22T00:55:37.155Z,2.45
2023-02-22T00:58:05.963Z,2.63
2023-02-22T01:00:37.404Z,2.43
2023-02-22T01:03:06.918Z,2.27
2023-02-22T01:05:35.487Z,2.41
2023-02-22T01:08:08.672Z,2.43
2023-02-22T01:10:37.334Z,2.49
2023-02-22T01:13:09.126Z,2.63
2023-02-22T01:15:39.003Z,2.59
2023-02-22T01:18:06.736Z,2.60
2023-02-22T01:20:34.347Z,2.75
2023-02-22T01:23:03.865Z,2.57
2023-02-22T01:25:31.554Z,3.02
2023-02-22T01:28:00.936Z,2.88
2023-02-22T01:30:32.849Z,2.86
2023-02-22T01:33:01.457Z,2.84
2023-02-22T01:35:32.185Z,2.82
2023-02-22T01:37:59.721Z,2.64
2023-02-22T01:40:36.871Z,2.68
2023-02-22T01:43:21.192Z,2.54
2023-02-22T01:46:12.900Z,2.00
2023-02-22T01:48:58.543Z,2.33
2023-02-22T01:51:31.019Z,2.43
2023-02-22T01:54:05.963Z,2.07
2023-02-22T01:56:36.655Z,1.58
2023-02-22T01:59:08.320Z,1.55
2023-02-22T02:01:38.221Z,1.57
2023-02-22T02:04:15.534Z,1.48
2023-02-22T02:06:44.193Z,1.44
2023-02-22T02:09:19.403Z,1.81
2023-02-22T02:11:46.870Z,1.66
2023-02-22T02:14:18.525Z,1.69
2023-02-22T02:16:50.907Z,1.44
2023-02-22T02:19:33.173Z,1.93
2023-02-22T02:22:42.724Z,2.05
2023-02-22T02:25:48.200Z,1.58
2023-02-22T02:28:53.978Z,1.65
2023-02-22T02:31:59.131Z,1.35
2023-02-22T02:34:26.548Z,1.54
2023-02-22T02:37:10.902Z,1.66
2023-02-22T02:39:51.226Z,1.10
2023-02-22T02:42:23.620Z,1.56
2023-02-22T02:45:03.895Z,1.52
2023-02-22T02:47:39.224Z,1.22
2023-02-22T02:50:15.344Z,1.31
2023-02-22T02:52:45.565Z,1.40
2023-02-22T02:55:14.323Z,1.20
2023-02-22T02:57:42.045Z,1.62
2023-02-22T03:00:22.446Z,1.32
2023-02-22T03:03:16.916Z,1.30
2023-02-22T03:06:08.565Z,1.83
2023-02-22T03:08:39.649Z,2.01
2023-02-22T03:11:19.493Z,1.71
2023-02-22T03:14:01.693Z,1.50
2023-02-22T03:16:42.131Z,1.66
2023-02-22T03:19:19.458Z,1.67
2023-02-22T03:22:14.099Z,1.91
2023-02-22T03:24:54.632Z,1.37
2023-02-22T03:27:37.268Z,1.62
2023-02-22T03:30:09.220Z,1.80
2023-02-22T03:32:41.287Z,2.03
2023-02-22T03:35:18.216Z,1.91
2023-02-22T03:37:48.434Z,1.73
2023-02-22T03:40:29.676Z,1.80
2023-02-22T03:43:06.611Z,2.18
2023-02-22T03:45:38.479Z,2.30
2023-02-22T03:48:21.211Z,2.15
2023-02-22T03:50:50.012Z,1.71
2023-02-22T03:53:19.484Z,1.78
2023-02-22T03:55:51.911Z,1.88
2023-02-22T03:58:23.073Z,1.87
2023-02-22T04:00:53.224Z,1.69
2023-02-22T04:03:21.591Z,2.13
2023-02-22T04:05:49.403Z,2.16
2023-02-22T04:08:17.275Z,2.05
2023-02-22T04:10:44.427Z,1.72
2023-02-22T04:13:11.974Z,1.53
2023-02-22T04:15:43.479Z,1.83
2023-02-22T04:18:11.945Z,1.92
2023-02-22T04:20:39.006Z,1.85
2023-02-22T04:23:12.447Z,2.03
2023-02-22T04:25:41.664Z,1.68
2023-02-22T04:28:12.653Z,1.82
2023-02-22T04:30:47.725Z,1.93
2023-02-22T04:33:17.603Z,1.91
2023-02-22T04:35:46.154Z,1.87
2023-02-22T04:38:13.996Z,2.04
2023-02-22T04:40:41.553Z,2.03
2023-02-22T04:43:09.571Z,1.64
2023-02-22T04:45:36.803Z,1.94
2023-02-22T04:48:05.757Z,1.86
2023-02-22T04:50:32.958Z,2.02
2023-02-22T04:53:00.371Z,1.96
2023-02-22T04:55:28.706Z,2.05
2023-02-22T04:57:57.500Z,1.81
2023-02-22T05:00:24.749Z,1.66
2023-02-22T05:02:56.806Z,2.00
2023-02-22T05:05:24.127Z,1.99
2023-02-22T05:07:53.033Z,2.07
2023-02-22T05:10:21.427Z,1.95
2023-02-22T05:12:49.193Z,2.15
2023-02-22T05:15:19.424Z,2.37
2023-02-22T05:17:46.857Z,2.14
2023-02-22T05:20:29.715Z,2.07
2023-02-22T05:22:59.142Z,1.92
2023-02-22T05:25:27.380Z,1.94
2023-02-22T05:27:57.771Z,1.70
2023-02-22T05:30:28.843Z,1.99
2023-02-22T05:32:56.775Z,1.97
2023-02-22T05:35:24.140Z,2.21
2023-02-22T05:37:52.451Z,1.67
2023-02-22T05:40:21.594Z,1.66
2023-02-22T05:42:49.923Z,1.63
2023-02-22T05:45:23.714Z,1.74
2023-02-22T05:47:52.709Z,1.94
2023-02-22T05:50:20.967Z,1.68
2023-02-22T05:52:48.931Z,1.86
2023-02-22T05:55:19.570Z,1.74
2023-02-22T05:57:47.230Z,1.78
2023-02-22T06:00:23.287Z,2.01
2023-02-22T06:03:10.697Z,2.37
2023-02-22T06:05:40.364Z,1.92
2023-02-22T06:08:08.318Z,1.96
2023-02-22T06:10:35.625Z,2.04
2023-02-22T06:13:04.598Z,1.55
2023-02-22T06:15:32.047Z,1.69
2023-02-22T06:18:00.643Z,2.07
2023-02-22T06:20:30.068Z,1.88
2023-02-22T06:22:59.110Z,1.89
2023-02-22T06:25:33.499Z,2.04
2023-02-22T06:28:01.166Z,1.97
2023-02-22T06:30:29.001Z,1.79
2023-02-22T06:32:57.591Z,1.74
2023-02-22T06:35:25.165Z,1.87
2023-02-22T06:37:52.779Z,1.98
2023-02-22T06:40:20.349Z,1.61
2023-02-22T06:42:49.305Z,1.67
2023-02-22T06:45:18.086Z,1.71
2023-02-22T06:47:46.195Z,1.91
2023-02-22T06:50:31.649Z,1.67
2023-02-22T06:52:59.364Z,1.57
2023-02-22T06:55:31.923Z,2.07
2023-02-22T06:58:00.623Z,1.82
2023-02-22T07:00:30.167Z,2.10
2023-02-22T07:02:59.118Z,2.25
2023-02-22T07:05:27.480Z,1.63
2023-02-22T07:08:01.193Z,1.55
2023-02-22T07:10:30.960Z,1.91
2023-02-22T07:12:58.447Z,1.93
2023-02-22T07:15:27.979Z,2.05
2023-02-22T07:17:55.848Z,1.88
2023-02-22T07:20:24.543Z,1.96
2023-02-22T07:22:52.780Z,1.65
2023-02-22T07:25:21.265Z,1.77
2023-02-22T07:27:48.693Z,1.60
2023-02-22T07:30:25.577Z,1.48
2023-02-22T07:32:55.148Z,1.88
2023-02-22T07:35:27.988Z,2.14
2023-02-22T07:37:56.213Z,1.86
2023-02-22T07:40:25.577Z,2.02
2023-02-22T07:43:06.866Z,2.27
2023-02-22T07:45:35.850Z,2.28
2023-02-22T07:48:05.239Z,2.02
2023-02-22T07:50:34.311Z,2.04
2023-02-22T07:53:04.313Z,2.40
2023-02-22T07:55:33.023Z,2.80
2023-02-22T07:58:03.299Z,2.37
2023-02-22T08:00:31.959Z,2.74
2023-02-22T08:03:01.491Z,2.75
2023-02-22T08:05:29.986Z,2.44
2023-02-22T08:07:58.843Z,2.44
2023-02-22T08:10:27.423Z,2.95
2023-02-22T08:12:55.980Z,3.14
2023-02-22T08:15:28.651Z,3.06
2023-02-22T08:17:57.897Z,2.68
2023-02-22T08:20:25.643Z,3.19
2023-02-22T08:22:53.438Z,3.25
2023-02-22T08:25:22.684Z,2.48
2023-02-22T08:27:50.250Z,3.13
2023-02-22T08:30:21.664Z,3.19
2023-02-22T08:32:50.157Z,2.85
2023-02-22T08:35:19.462Z,3.08
2023-02-22T08:37:50.027Z,2.83
2023-02-22T08:40:19.610Z,2.68
2023-02-22T08:42:47.122Z,3.11
2023-02-22T08:45:14.569Z,3.23
2023-02-22T08:47:42.652Z,3.05
2023-02-22T08:50:17.411Z,3.05
2023-02-22T08:52:44.909Z,3.36
2023-02-22T08:55:12.509Z,2.78
2023-02-22T08:57:40.135Z,3.12
2023-02-22T09:00:08.427Z,3.65
2023-02-22T09:02:36.003Z,3.71
2023-02-22T09:05:05.793Z,3.66
2023-02-22T09:07:33.361Z,3.63
2023-02-22T09:10:00.841Z,3.77
2023-02-22T09:12:28.517Z,3.50
2023-02-22T09:14:55.740Z,3.43
2023-02-22T09:17:23.277Z,3.54
2023-02-22T09:19:50.554Z,3.72
2023-02-22T09:22:18.137Z,3.94
2023-02-22T09:24:45.598Z,3.66
2023-02-22T09:27:13.286Z,3.64
2023-02-22T09:29:40.604Z,3.53
2023-02-22T09:32:08.411Z,3.85
2023-02-22T09:34:35.772Z,3.90
2023-02-22T09:37:05.190Z,3.98
2023-02-22T09:39:37.596Z,4.25
2023-02-22T09:42:41.675Z,4.04
2023-02-22T09:45:16.540Z,4.21
2023-02-22T09:47:50.685Z,4.09
2023-02-22T09:50:24.634Z,3.97
2023-02-22T09:53:12.404Z,3.84
2023-02-22T09:55:45.375Z,4.07
2023-02-22T09:58:26.312Z,3.64
2023-02-22T10:01:01.193Z,3.94
2023-02-22T10:03:49.137Z,3.86
2023-02-22T10:06:23.804Z,4.24
2023-02-22T10:08:58.728Z,3.75
2023-02-22T10:11:49.774Z,4.09
2023-02-22T10:14:49.479Z,3.91
2023-02-22T10:17:39.363Z,3.99
2023-02-22T10:20:28.737Z,3.64
2023-02-22T10:23:26.955Z,3.85
2023-02-22T10:26:12.394Z,3.08
2023-02-22T10:28:46.838Z,3.80
2023-02-22T10:31:23.721Z,4.01
2023-02-22T10:33:58.721Z,4.22
2023-02-22T10:36:26.935Z,3.87
2023-02-22T10:39:00.195Z,3.47
2023-02-22T10:41:35.266Z,3.89
2023-02-22T10:44:03.107Z,4.04
2023-02-22T10:46:33.352Z,3.80
2023-02-22T10:49:04.536Z,3.97
2023-02-22T10:51:32.949Z,4.22
2023-02-22T10:54:27.029Z,3.53
2023-02-22T10:56:56.712Z,3.74
2023-02-22T10:59:37.319Z,4.47
2023-02-22T11:02:14.182Z,4.45
2023-02-22T11:04:56.892Z,4.34
2023-02-22T11:07:36.025Z,4.53
2023-02-22T11:10:09.414Z,4.56
2023-02-22T11:12:42.432Z,4.72
2023-02-22T11:15:28.979Z,4.20
2023-02-22T11:18:01.457Z,4.41
2023-02-22T11:20:38.589Z,4.15
2023-02-22T11:23:08.265Z,3.47
2023-02-22T11:25:39.848Z,4.04
2023-02-22T11:28:15.444Z,4.16
2023-02-22T11:30:46.176Z,4.17
2023-02-22T11:33:17.083Z,3.93
2023-02-22T11:35:56.753Z,3.97
2023-02-22T11:38:24.138Z,4.15
2023-02-22T11:41:16.071Z,4.47
2023-02-22T11:43:48.994Z,4.29
2023-02-22T11:46:22.036Z,4.11
2023-02-22T11:49:04.599Z,4.25
2023-02-22T11:51:35.385Z,4.63
2023-02-22T11:54:11.850Z,4.42
2023-02-22T11:56:48.210Z,4.20
2023-02-22T11:59:24.887Z,3.97
2023-02-22T12:02:19.347Z,3.35
2023-02-22T12:05:06.202Z,3.31
2023-02-22T12:08:10.742Z,4.21
2023-02-22T12:10:55.279Z,3.61
2023-02-22T12:13:28.908Z,3.98
2023-02-22T12:16:18.667Z,4.35
2023-02-22T12:19:30.398Z,3.65
2023-02-22T12:22:02.499Z,4.21
2023-02-22T12:24:48.041Z,4.41
2023-02-22T12:27:27.400Z,4.26
2023-02-22T12:29:59.828Z,4.10
2023-02-22T12:32:48.679Z,3.47
2023-02-22T12:35:57.216Z,3.63
2023-02-22T12:38:37.279Z,3.62
2023-02-22T12:41:22.806Z,3.13
2023-02-22T12:44:02.344Z,3.06
2023-02-22T12:46:50.375Z,3.12
2023-02-22T12:49:40.049Z,3.42
2023-02-22T12:52:38.097Z,3.21
2023-02-22T12:55:18.685Z,3.47
2023-02-22T12:58:03.857Z,3.19
2023-02-22T13:00:50.785Z,3.21
2023-02-22T13:03:40.803Z,3.07
2023-02-22T13:06:37.151Z,3.18
2023-02-22T13:09:26.619Z,3.04
2023-02-22T13:12:09.684Z,3.30
2023-02-22T13:15:11.115Z,3.08
2023-02-22T13:18:01.783Z,3.44
2023-02-22T13:20:37.636Z,3.44
2023-02-22T13:23:19.273Z,3.64
2023-02-22T13:26:01.693Z,3.82
2023-02-22T13:28:39.453Z,3.47
2023-02-22T13:31:25.287Z,3.73
2023-02-22T13:34:31.068Z,3.82
2023-02-22T13:36:58.173Z,3.53
2023-02-22T13:39:54.760Z,3.64
2023-02-22T13:42:33.722Z,3.52
2023-02-22T13:45:12.893Z,3.92
2023-02-22T13:47:58.185Z,3.66
2023-02-22T13:50:52.265Z,3.53
2023-02-22T13:53:29.298Z,3.68
2023-02-22T13:55:59.989Z,3.49
2023-02-22T13:58:27.854Z,3.80
2023-02-22T14:01:00.660Z,3.78
2023-02-22T14:03:40.959Z,3.84
2023-02-22T14:06:41.628Z,3.99
2023-02-22T14:09:09.525Z,3.74
2023-02-22T14:11:43.345Z,3.98
2023-02-22T14:14:14.619Z,4.22
2023-02-22T14:16:42.534Z,4.15
2023-02-22T14:19:09.849Z,4.32
2023-02-22T14:22:02.094Z,4.24
2023-02-22T14:24:42.829Z,4.22
2023-02-22T14:27:12.011Z,4.04
2023-02-22T14:29:53.712Z,3.69
2023-02-22T14:32:32.031Z,3.62
2023-02-22T14:35:06.316Z,3.58
2023-02-22T14:37:39.949Z,3.70
2023-02-22T14:40:21.796Z,4.04
2023-02-22T14:43:06.314Z,4.12
2023-02-22T14:45:35.908Z,4.11
2023-02-22T14:48:27.689Z,3.98
2023-02-22T14:51:05.869Z,4.03
2023-02-22T14:53:54.020Z,4.14
2023-02-22T14:56:28.654Z,4.03
2023-02-22T14:59:27.250Z,4.03
2023-02-22T15:02:12.820Z,4.07
2023-02-22T15:04:44.197Z,3.99
2023-02-22T15:07:30.502Z,3.89
2023-02-22T15:10:23.998Z,3.85
2023-02-22T15:13:08.768Z,3.86
2023-02-22T15:15:49.308Z,3.62
2023-02-22T15:18:22.198Z,3.54
2023-02-22T15:20:58.192Z,3.73
2023-02-22T15:23:33.398Z,3.83
2023-02-22T15:26:02.033Z,3.83
2023-02-22T15:28:31.195Z,3.45
2023-02-22T15:31:23.704Z,3.53
2023-02-22T15:33:53.198Z,3.78
2023-02-22T15:36:22.678Z,3.60
2023-02-22T15:38:52.744Z,3.87
2023-02-22T15:41:27.958Z,3.79
2023-02-22T15:44:23.309Z,3.55
2023-02-22T15:46:55.275Z,3.44
2023-02-22T15:49:24.345Z,3.50
2023-02-22T15:52:19.784Z,3.43
2023-02-22T15:54:52.181Z,3.61
2023-02-22T15:57:22.373Z,3.54
2023-02-22T15:59:56.643Z,3.33
2023-02-22T16:02:36.220Z,3.30
2023-02-22T16:05:13.708Z,3.60
2023-02-22T16:07:47.771Z,3.38
2023-02-22T16:10:27.377Z,3.44
2023-02-22T16:13:30.847Z,3.25
2023-02-22T16:16:04.957Z,3.31
2023-02-22T16:18:38.882Z,3.28
2023-02-22T16:21:06.901Z,3.20
2023-02-22T16:23:45.055Z,3.28
2023-02-22T16:26:25.878Z,3.30
2023-02-22T16:28:59.231Z,2.92
2023-02-22T16:31:29.925Z,3.20
2023-02-22T16:33:57.846Z,3.07
2023-02-22T16:36:39.869Z,3.21
2023-02-22T16:39:13.981Z,3.12
2023-02-22T16:41:41.286Z,3.18
2023-02-22T16:44:09.181Z,2.89
2023-02-22T17:10:22.257Z,2.10
2023-02-22T17:12:53.308Z,1.83
2023-02-22T17:15:24.677Z,2.63
2023-02-22T17:17:53.115Z,1.78
2023-02-22T17:20:30.007Z,1.70
2023-02-22T17:22:59.336Z,1.95
2023-02-22T17:25:31.537Z,2.38
2023-02-22T17:27:59.785Z,2.40
2023-02-22T17:30:28.079Z,2.32
2023-02-22T17:33:03.565Z,2.43
2023-02-22T17:35:35.601Z,2.08
2023-02-22T17:38:06.436Z,2.02
2023-02-22T17:40:37.653Z,2.10
2023-02-22T17:43:08.772Z,1.89
2023-02-22T17:45:39.581Z,1.97
2023-02-22T17:48:08.641Z,1.56
2023-02-22T17:50:40.495Z,1.78
2023-02-22T17:53:11.167Z,1.58
2023-02-22T17:55:40.997Z,1.92
2023-02-22T17:58:14.919Z,1.89
2023-02-22T18:00:45.943Z,2.34
2023-02-22T18:03:16.319Z,2.23
2023-02-22T18:05:46.563Z,2.42
2023-02-22T18:08:15.448Z,1.77
2023-02-22T18:10:44.137Z,1.68
2023-02-22T18:13:19.060Z,1.67
2023-02-22T18:16:04.891Z,1.51
2023-02-22T18:18:32.821Z,1.82
2023-02-22T18:21:00.142Z,1.67
2023-02-22T18:23:37.236Z,1.72
2023-02-22T18:26:28.208Z,1.65
2023-02-22T18:29:06.885Z,1.53
2023-02-22T18:31:34.666Z,1.62
2023-02-22T18:34:04.846Z,2.06
2023-02-22T18:36:49.557Z,1.62
2023-02-22T18:39:18.313Z,1.49
2023-02-22T18:41:48.715Z,1.56
2023-02-22T18:44:23.688Z,1.62
2023-02-22T18:46:57.186Z,1.76
2023-02-22T18:49:28.544Z,1.68
2023-02-22T18:52:03.192Z,2.27
2023-02-22T18:54:45.298Z,2.23
2023-02-22T18:57:13.027Z,1.43
2023-02-22T18:59:41.956Z,1.48
2023-02-22T19:02:21.871Z,1.55
2023-02-22T19:04:49.636Z,1.56
2023-02-22T19:07:18.448Z,1.53
2023-02-22T19:09:47.292Z,1.59
2023-02-22T19:12:16.997Z,1.65
2023-02-22T19:14:46.165Z,1.25
2023-02-22T19:17:16.402Z,1.48
2023-02-22T19:19:46.758Z,1.46
2023-02-22T19:22:17.781Z,1.60
2023-02-22T19:24:45.756Z,1.43
2023-02-22T19:31:20.086Z,1.81
2023-02-22T19:33:52.553Z,1.36
2023-02-22T19:36:23.368Z,1.20
2023-02-22T19:38:52.312Z,1.19
2023-02-22T19:41:23.587Z,1.13
2023-02-22T19:43:53.795Z,1.45
2023-02-22T19:46:22.467Z,1.22
2023-02-22T19:48:52.746Z,1.33
2023-02-22T19:51:29.488Z,1.37
2023-02-22T19:54:01.010Z,1.33
2023-02-22T19:56:31.428Z,1.54
2023-02-22T19:59:03.669Z,1.30
2023-02-22T20:01:35.720Z,1.34
2023-02-22T20:04:10.796Z,1.27
2023-02-22T20:06:41.789Z,1.51
2023-02-22T20:09:14.116Z,1.71
2023-02-22T20:11:41.940Z,1.90
2023-02-22T20:14:17.037Z,1.74
2023-02-22T20:16:44.914Z,1.75
2023-02-22T20:19:13.849Z,1.12
2023-02-22T20:21:41.705Z,1.01
2023-02-22T20:24:15.259Z,1.64
2023-02-22T20:26:43.495Z,1.36
2023-02-22T20:29:12.436Z,1.15
2023-02-22T20:31:41.632Z,1.61
2023-02-22T20:34:10.875Z,1.15
2023-02-22T20:36:40.784Z,1.27
2023-02-22T20:39:13.434Z,1.11
2023-02-22T20:41:43.209Z,1.15
2023-02-22T20:44:13.652Z,1.33
2023-02-22T20:46:41.152Z,1.40
2023-02-22T20:49:11.521Z,1.06
2023-02-22T20:51:42.229Z,1.22
2023-02-22T20:54:12.276Z,1.71
2023-02-22T20:56:41.992Z,2.20
2023-02-22T20:59:12.784Z,2.38
2023-02-22T21:01:40.595Z,2.15
2023-02-22T21:04:10.478Z,1.90
2023-02-22T21:06:39.398Z,2.07
2023-02-22T21:09:11.651Z,2.18
2023-02-22T21:11:40.080Z,2.12
2023-02-22T21:14:08.791Z,2.13
2023-02-22T21:16:38.085Z,2.14
2023-02-22T21:19:07.334Z,1.54
2023-02-22T21:21:35.660Z,1.61
2023-02-22T21:24:03.460Z,1.50
2023-02-22T21:26:33.804Z,1.44
2023-02-22T21:29:04.957Z,1.82
2023-02-22T21:31:34.570Z,1.60
2023-02-22T21:34:04.394Z,1.51
2023-02-22T21:36:32.626Z,1.52
2023-02-22T21:39:03.066Z,1.52
2023-02-22T21:41:31.498Z,1.30
2023-02-22T21:44:00.285Z,1.57
2023-02-22T21:46:29.546Z,1.89
2023-02-22T21:48:58.612Z,1.87
2023-02-22T21:51:31.789Z,1.97
2023-02-22T21:54:05.875Z,2.02
2023-02-22T21:56:43.182Z,2.00
2023-02-22T21:59:23.879Z,1.65
2023-02-22T22:01:55.959Z,1.26
2023-02-22T22:04:28.475Z,1.11
2023-02-22T22:06:57.966Z,1.07
2023-02-22T22:09:28.949Z,1.54
2023-02-22T22:11:59.258Z,1.10
2023-02-22T22:14:28.141Z,1.11
2023-02-22T22:17:00.995Z,0.63
2023-02-22T22:19:30.377Z,0.88
2023-02-22T22:21:58.142Z,0.89
2023-02-22T22:24:28.661Z,0.96
2023-02-22T22:26:56.102Z,1.50
2023-02-22T22:29:26.547Z,0.87
2023-02-22T22:31:54.518Z,1.04
2023-02-22T22:34:24.373Z,1.56
2023-02-22T22:36:51.586Z,0.93
2023-02-22T22:39:21.128Z,0.65
2023-02-22T22:41:48.641Z,1.05
2023-02-22T22:44:22.212Z,0.84
2023-02-22T22:46:53.552Z,1.26
2023-02-22T22:49:23.355Z,1.34
2023-02-22T22:51:51.140Z,1.37
2023-02-22T22:54:18.529Z,1.21
2023-02-22T22:56:46.501Z,1.14
2023-02-22T22:59:13.994Z,0.94
2023-02-22T23:01:44.655Z,0.99
2023-02-22T23:04:18.294Z,0.92
2023-02-22T23:06:50.016Z,0.90
2023-02-22T23:09:21.763Z,0.79
2023-02-22T23:12:00.434Z,1.25
2023-02-22T23:14:32.691Z,1.07
2023-02-22T23:17:03.470Z,0.72
2023-02-22T23:19:36.488Z,1.02
2023-02-22T23:22:05.486Z,0.93
2023-02-22T23:24:36.175Z,0.75
2023-02-22T23:27:07.266Z,0.83
2023-02-22T23:29:38.498Z,0.59
2023-02-22T23:32:06.062Z,0.48
2023-02-22T23:34:35.950Z,0.47
2023-02-22T23:37:03.585Z,0.90
2023-02-22T23:39:31.016Z,0.78
2023-02-22T23:41:59.241Z,0.54
2023-02-22T23:44:28.030Z,0.65
2023-02-22T23:46:55.923Z,0.80
2023-02-22T23:49:26.384Z,0.54
2023-02-22T23:51:53.702Z,0.71
2023-02-22T23:54:21.522Z,0.52
2023-02-22T23:56:58.461Z,0.26
2023-02-22T23:59:27.169Z,0.50
